Time;durP1;ratioP1;P1;durP2;ratioP2;P2;SDS_P1;SDS_P2;PMS_P1;PMS_P2;Temp;Humidity;BMP_temperature;BMP_pressure;BME280_temperature;BME280_humidity;BME280_pressure;Samples;Min_cycle;Max_cycle;Signal;HPM_P1;HPM_P2
2021/03/14 00:00:52;;;;;;;8.40;2.00;;;5.40;99.90;;;;;;5031357;28;20805;-69
2021/03/14 00:03:21;;;;;;;8.27;2.33;;;5.40;99.90;;;;;;5031371;28;21188;-68
2021/03/14 00:05:49;;;;;;;2.97;1.50;;;5.30;99.90;;;;;;5035756;28;20250;-69
2021/03/14 00:08:17;;;;;;;8.97;1.53;;;5.30;99.90;;;;;;5033107;28;20199;-69
2021/03/14 00:10:45;;;;;;;12.23;1.80;;;5.20;99.90;;;;;;5033909;28;20239;-68
2021/03/14 00:13:14;;;;;;;11.27;2.40;;;5.20;99.90;;;;;;5031902;28;20203;-68
2021/03/14 00:15:41;;;;;;;5.33;1.50;;;5.20;99.90;;;;;;5033776;28;20290;-68
2021/03/14 00:18:08;;;;;;;11.27;2.20;;;5.10;99.90;;;;;;5033044;28;22615;-68
2021/03/14 00:20:35;;;;;;;8.13;1.93;;;5.10;99.90;;;;;;5034322;28;20200;-69
2021/03/14 00:23:01;;;;;;;5.30;1.70;;;5.10;99.90;;;;;;5033040;28;20200;-68
2021/03/14 00:25:28;;;;;;;10.60;2.17;;;5.10;99.90;;;;;;5032846;28;20197;-69
2021/03/14 00:27:55;;;;;;;5.97;2.00;;;5.00;99.90;;;;;;5034300;28;20200;-68
2021/03/14 00:30:23;;;;;;;8.60;2.07;;;5.00;99.90;;;;;;5038580;28;20203;-69
2021/03/14 00:32:50;;;;;;;5.23;2.00;;;5.00;99.90;;;;;;5030754;28;20196;-69
2021/03/14 00:35:18;;;;;;;13.37;2.63;;;4.90;99.90;;;;;;5030941;28;20203;-69
2021/03/14 00:37:46;;;;;;;9.17;2.17;;;4.90;99.90;;;;;;5031937;28;20210;-69
2021/03/14 00:40:13;;;;;;;4.40;1.60;;;4.90;99.90;;;;;;5033187;28;20199;-69
2021/03/14 00:42:39;;;;;;;8.20;2.00;;;4.90;99.90;;;;;;5029858;28;20234;-68
2021/03/14 00:45:08;;;;;;;7.67;2.20;;;5.00;99.90;;;;;;5034981;28;20245;-68
2021/03/14 00:47:36;;;;;;;8.00;2.07;;;5.00;99.90;;;;;;5033169;28;22944;-69
2021/03/14 00:50:05;;;;;;;9.03;2.27;;;5.10;99.90;;;;;;5030308;28;20204;-69
2021/03/14 00:52:31;;;;;;;5.87;2.07;;;5.10;99.90;;;;;;5030954;28;20604;-69
2021/03/14 00:54:58;;;;;;;6.67;1.67;;;5.10;99.90;;;;;;5030339;28;20301;-69
2021/03/14 00:57:24;;;;;;;13.43;2.90;;;5.10;99.90;;;;;;5031231;28;20199;-69
2021/03/14 00:59:51;;;;;;;8.17;2.30;;;5.10;99.90;;;;;;5033020;28;20275;-69
2021/03/14 01:02:18;;;;;;;8.03;2.73;;;5.10;99.90;;;;;;5032268;28;20215;-68
2021/03/14 01:04:45;;;;;;;8.93;2.00;;;5.10;99.90;;;;;;5033531;28;20207;-69
2021/03/14 01:07:12;;;;;;;8.77;2.50;;;5.10;99.90;;;;;;5032681;28;20208;-69
2021/03/14 01:09:38;;;;;;;4.00;1.43;;;5.10;99.90;;;;;;5032079;28;20280;-69
2021/03/14 01:12:07;;;;;;;12.03;2.53;;;5.00;99.90;;;;;;5031426;28;20203;-69
2021/03/14 01:14:34;;;;;;;8.60;2.40;;;5.00;99.90;;;;;;5032165;28;20208;-69
2021/03/14 01:17:00;;;;;;;10.47;2.43;;;5.00;99.90;;;;;;5031577;28;20207;-68
2021/03/14 01:19:27;;;;;;;6.50;1.97;;;5.00;99.90;;;;;;5033219;28;20203;-69
2021/03/14 01:21:54;;;;;;;7.20;2.00;;;5.00;99.90;;;;;;5029759;28;20232;-69
2021/03/14 01:24:21;;;;;;;10.33;2.53;;;5.00;99.90;;;;;;5031053;28;20210;-69
2021/03/14 01:26:48;;;;;;;7.77;2.03;;;5.00;99.90;;;;;;5030588;28;20226;-69
2021/03/14 01:29:14;;;;;;;12.87;3.50;;;5.00;99.90;;;;;;5036838;28;20195;-68
2021/03/14 01:31:41;;;;;;;13.20;2.43;;;5.00;99.90;;;;;;5037588;28;20211;-69
2021/03/14 01:34:07;;;;;;;6.17;2.27;;;5.10;99.90;;;;;;5029404;28;20203;-69
2021/03/14 01:36:34;;;;;;;5.23;2.13;;;5.00;99.90;;;;;;5031978;28;21149;-69
2021/03/14 01:39:01;;;;;;;6.27;2.50;;;5.00;99.90;;;;;;5033042;28;20257;-68
2021/03/14 01:41:27;;;;;;;5.33;2.07;;;5.10;99.90;;;;;;5029713;28;20252;-69
2021/03/14 01:43:54;;;;;;;5.03;2.33;;;5.10;99.90;;;;;;5032078;28;20204;-68
2021/03/14 01:46:22;;;;;;;6.47;2.40;;;5.10;99.90;;;;;;5033487;28;20303;-69
2021/03/14 01:48:48;;;;;;;9.63;2.17;;;5.10;99.90;;;;;;5034900;28;20242;-69
2021/03/14 01:51:15;;;;;;;9.80;2.77;;;5.10;99.90;;;;;;5047584;28;20199;-70
2021/03/14 01:53:42;;;;;;;7.33;1.83;;;5.20;99.90;;;;;;5031419;28;20196;-69
2021/03/14 01:56:10;;;;;;;8.17;2.67;;;5.20;99.90;;;;;;5030707;28;20276;-68
2021/03/14 01:58:39;;;;;;;11.40;2.43;;;5.20;99.90;;;;;;5031398;28;20200;-68
2021/03/14 02:01:05;;;;;;;10.17;2.40;;;5.30;99.90;;;;;;5029013;28;20223;-69
2021/03/14 02:03:32;;;;;;;10.03;2.33;;;5.30;99.90;;;;;;5031283;28;20204;-68
2021/03/14 02:05:58;;;;;;;8.90;2.33;;;5.30;99.90;;;;;;5034779;28;20224;-69
2021/03/14 02:08:25;;;;;;;7.13;2.13;;;5.40;99.90;;;;;;5032356;28;20200;-69
2021/03/14 02:10:53;;;;;;;9.67;3.00;;;5.40;99.90;;;;;;5029829;28;20612;-69
2021/03/14 02:13:27;;;;;;;6.90;2.80;;;5.40;99.90;;;;;;5032202;28;20210;-69
2021/03/14 02:15:56;;;;;;;7.03;2.63;;;5.40;99.90;;;;;;5033726;28;20253;-69
2021/03/14 02:18:25;;;;;;;7.17;2.50;;;5.50;99.90;;;;;;5032831;28;20913;-69
2021/03/14 02:20:52;;;;;;;6.47;2.47;;;5.60;99.90;;;;;;5031986;28;20257;-69
2021/03/14 02:23:31;;;;;;;11.77;2.87;;;5.60;99.90;;;;;;5032448;28;20242;-70
2021/03/14 02:26:02;;;;;;;6.37;2.20;;;5.60;99.90;;;;;;5027889;28;20263;-70
2021/03/14 02:28:30;;;;;;;9.90;2.60;;;5.60;99.90;;;;;;5034845;28;20218;-69
2021/03/14 02:30:57;;;;;;;11.10;2.67;;;5.70;99.90;;;;;;5032545;28;20226;-69
2021/03/14 02:33:26;;;;;;;8.30;2.50;;;5.70;99.90;;;;;;5032302;28;20799;-69
2021/03/14 02:35:54;;;;;;;8.00;2.23;;;5.80;99.90;;;;;;5036711;28;20269;-71
2021/03/14 02:38:21;;;;;;;7.67;2.50;;;5.80;99.90;;;;;;5031700;28;20960;-70
2021/03/14 02:40:48;;;;;;;8.63;2.73;;;5.80;99.90;;;;;;5035006;28;20222;-69
2021/03/14 02:43:16;;;;;;;8.40;2.13;;;5.80;99.90;;;;;;5036778;28;20200;-70
2021/03/14 02:45:44;;;;;;;9.20;2.43;;;5.80;99.90;;;;;;5036303;28;20607;-70
2021/03/14 02:48:11;;;;;;;8.33;2.50;;;5.80;99.90;;;;;;5037449;28;20193;-69
2021/03/14 02:50:38;;;;;;;10.53;2.60;;;5.80;99.90;;;;;;5034954;28;20202;-69
2021/03/14 02:53:06;;;;;;;7.40;2.50;;;5.80;99.90;;;;;;5034356;28;20569;-67
2021/03/14 02:55:33;;;;;;;8.60;2.63;;;5.80;99.90;;;;;;5035269;28;20207;-69
2021/03/14 02:57:59;;;;;;;12.70;2.57;;;5.80;99.90;;;;;;5033343;28;20203;-69
2021/03/14 03:00:28;;;;;;;5.43;1.93;;;5.80;99.90;;;;;;5037077;28;20707;-69
2021/03/14 03:02:57;;;;;;;8.50;2.60;;;5.80;99.90;;;;;;5032917;28;20220;-69
2021/03/14 03:05:25;;;;;;;6.77;2.30;;;5.80;99.90;;;;;;5034290;28;20212;-69
2021/03/14 03:07:53;;;;;;;11.63;2.37;;;5.90;99.90;;;;;;5032753;28;20215;-70
2021/03/14 03:10:22;;;;;;;12.87;2.57;;;5.90;99.90;;;;;;5034032;28;20227;-70
2021/03/14 03:12:49;;;;;;;8.77;2.70;;;5.80;99.90;;;;;;5035489;28;20231;-69
2021/03/14 03:15:18;;;;;;;4.87;2.37;;;5.90;99.90;;;;;;5035646;28;20227;-69
2021/03/14 03:17:45;;;;;;;8.13;3.00;;;5.90;99.90;;;;;;5035472;28;20207;-69
2021/03/14 03:20:14;;;;;;;8.77;2.40;;;5.90;99.90;;;;;;5032473;28;20212;-70
2021/03/14 03:22:42;;;;;;;8.43;2.20;;;5.90;99.90;;;;;;5034225;28;20648;-69
2021/03/14 03:25:10;;;;;;;9.93;2.13;;;5.90;99.90;;;;;;5033107;28;20197;-70
2021/03/14 03:27:37;;;;;;;10.10;2.70;;;5.80;99.90;;;;;;5038795;28;20196;-70
2021/03/14 03:30:06;;;;;;;11.10;2.27;;;5.80;99.90;;;;;;5035492;28;20199;-69
2021/03/14 03:32:32;;;;;;;5.50;2.57;;;5.80;99.90;;;;;;5038003;28;20740;-69
2021/03/14 03:34:59;;;;;;;13.03;2.33;;;5.80;99.90;;;;;;5034578;28;20763;-69
2021/03/14 03:37:26;;;;;;;8.60;2.43;;;5.80;99.90;;;;;;5032766;28;20726;-68
2021/03/14 03:39:53;;;;;;;5.13;2.10;;;5.80;99.90;;;;;;5033800;28;20664;-69
2021/03/14 03:42:22;;;;;;;6.23;1.83;;;5.80;99.90;;;;;;5031959;28;20219;-69
2021/03/14 03:44:49;;;;;;;5.00;1.80;;;5.80;99.90;;;;;;5031413;28;20199;-69
2021/03/14 03:47:17;;;;;;;6.60;2.07;;;5.90;99.90;;;;;;5031438;28;20242;-69
2021/03/14 03:49:49;;;;;;;5.23;2.23;;;5.90;99.90;;;;;;5038856;28;20215;-69
2021/03/14 03:52:17;;;;;;;9.30;2.50;;;5.80;99.90;;;;;;5033270;28;20199;-68
2021/03/14 03:54:48;;;;;;;6.73;1.83;;;5.70;99.90;;;;;;5032602;28;20223;-68
2021/03/14 03:57:16;;;;;;;4.37;1.67;;;5.50;99.90;;;;;;5033933;28;20573;-68
2021/03/14 03:59:43;;;;;;;7.57;2.30;;;5.50;99.90;;;;;;5033728;28;20239;-68
2021/03/14 04:02:11;;;;;;;3.67;1.67;;;5.40;99.90;;;;;;5031249;28;21652;-70
2021/03/14 04:04:40;;;;;;;5.37;1.90;;;5.30;99.90;;;;;;5033770;28;20203;-69
2021/03/14 04:07:10;;;;;;;4.17;1.67;;;5.30;99.90;;;;;;5033131;28;20204;-68
2021/03/14 04:09:37;;;;;;;5.87;2.57;;;5.30;99.90;;;;;;5031216;28;20228;-69
2021/03/14 04:12:06;;;;;;;5.83;2.00;;;5.20;99.90;;;;;;5030964;28;20657;-69
2021/03/14 04:14:34;;;;;;;4.70;1.57;;;5.20;99.90;;;;;;5032934;28;20680;-68
2021/03/14 04:17:02;;;;;;;2.70;1.53;;;5.10;99.90;;;;;;5033496;28;20211;-68
2021/03/14 04:19:29;;;;;;;5.53;2.00;;;5.10;99.90;;;;;;5031990;28;20662;-68
2021/03/14 04:21:58;;;;;;;6.87;1.80;;;5.00;99.90;;;;;;5030271;28;20227;-68
2021/03/14 04:24:27;;;;;;;9.23;2.10;;;5.00;99.90;;;;;;5031073;28;21345;-68
2021/03/14 04:26:54;;;;;;;4.10;1.47;;;5.00;99.90;;;;;;5037183;28;20543;-70
2021/03/14 04:29:22;;;;;;;4.93;1.67;;;5.00;99.90;;;;;;5030375;28;20302;-69
2021/03/14 04:31:50;;;;;;;5.10;1.67;;;5.00;99.90;;;;;;5037752;28;21927;-68
2021/03/14 04:34:20;;;;;;;5.50;1.90;;;5.00;99.90;;;;;;5032232;28;20257;-70
2021/03/14 04:36:48;;;;;;;5.03;1.83;;;5.00;99.90;;;;;;5031250;28;20210;-68
2021/03/14 04:39:15;;;;;;;6.57;2.00;;;4.90;99.90;;;;;;5029400;28;20203;-68
2021/03/14 04:41:43;;;;;;;10.40;2.83;;;5.00;99.90;;;;;;5034441;28;20236;-68
2021/03/14 04:44:11;;;;;;;5.33;1.90;;;5.00;99.90;;;;;;5032494;28;20204;-69
2021/03/14 04:46:39;;;;;;;5.03;2.30;;;5.00;99.90;;;;;;5031705;28;20204;-69
2021/03/14 04:49:05;;;;;;;6.10;2.27;;;5.00;99.90;;;;;;5033220;28;20270;-70
2021/03/14 04:51:35;;;;;;;10.20;2.97;;;5.00;99.90;;;;;;5035711;28;20212;-68
2021/03/14 04:54:02;;;;;;;10.93;2.37;;;5.00;99.90;;;;;;5030169;28;20258;-69
2021/03/14 04:56:30;;;;;;;8.33;2.40;;;5.00;99.90;;;;;;5029788;28;20200;-69
2021/03/14 04:58:58;;;;;;;5.47;2.17;;;5.00;99.90;;;;;;5030292;28;20196;-69
2021/03/14 05:01:26;;;;;;;5.80;2.10;;;5.10;99.90;;;;;;5030425;28;20227;-68
2021/03/14 05:03:56;;;;;;;5.87;2.10;;;5.10;99.90;;;;;;5030617;28;20265;-69
2021/03/14 05:06:22;;;;;;;6.77;2.47;;;5.10;99.90;;;;;;5031670;28;20207;-69
2021/03/14 05:08:50;;;;;;;8.80;2.30;;;5.10;99.90;;;;;;5031922;28;20197;-68
2021/03/14 05:11:19;;;;;;;9.40;2.77;;;5.10;99.90;;;;;;5037194;28;20246;-68
2021/03/14 05:13:46;;;;;;;8.10;2.70;;;5.20;99.90;;;;;;5038912;28;20231;-69
2021/03/14 05:16:13;;;;;;;6.57;3.60;;;5.20;99.90;;;;;;5040054;28;20203;-68
2021/03/14 05:18:42;;;;;;;8.77;3.10;;;5.20;99.90;;;;;;5038903;28;20588;-68
2021/03/14 05:21:10;;;;;;;7.47;3.27;;;5.20;99.90;;;;;;5040482;28;20620;-69
2021/03/14 05:23:37;;;;;;;9.07;3.70;;;5.20;99.90;;;;;;5037292;28;20203;-68
2021/03/14 05:26:09;;;;;;;7.10;3.00;;;5.20;99.90;;;;;;5040883;28;20369;-68
2021/03/14 05:28:36;;;;;;;8.30;3.20;;;5.20;99.90;;;;;;5040199;28;20651;-68
2021/03/14 05:31:03;;;;;;;10.37;3.70;;;5.20;99.90;;;;;;5042071;28;20200;-68
2021/03/14 05:33:29;;;;;;;6.17;3.17;;;5.20;99.90;;;;;;5037253;28;20680;-68
2021/03/14 05:35:56;;;;;;;11.00;3.30;;;5.20;99.90;;;;;;5039641;28;22775;-67
2021/03/14 05:38:23;;;;;;;7.30;3.50;;;5.20;99.90;;;;;;5039210;28;20195;-68
2021/03/14 05:40:50;;;;;;;10.40;3.57;;;5.20;99.90;;;;;;5041295;28;20725;-67
2021/03/14 05:43:16;;;;;;;9.00;3.37;;;5.30;99.90;;;;;;5038986;28;20667;-68
2021/03/14 05:45:43;;;;;;;7.93;4.07;;;5.30;99.90;;;;;;5041734;28;20604;-68
2021/03/14 05:48:10;;;;;;;8.30;3.40;;;5.30;99.90;;;;;;5044278;28;20191;-68
2021/03/14 05:50:36;;;;;;;10.87;4.10;;;5.30;99.90;;;;;;5041697;28;20191;-67
2021/03/14 05:53:03;;;;;;;10.47;4.90;;;5.30;99.90;;;;;;5038273;28;20214;-69
2021/03/14 05:55:31;;;;;;;12.60;3.73;;;5.40;99.90;;;;;;5041648;28;20258;-68
2021/03/14 05:57:58;;;;;;;11.40;4.67;;;5.40;99.90;;;;;;5038736;28;20301;-67
2021/03/14 06:00:27;;;;;;;8.13;3.70;;;5.40;99.90;;;;;;5040580;28;20277;-67
2021/03/14 06:02:56;;;;;;;7.43;3.70;;;5.40;99.90;;;;;;5040834;28;20231;-67
2021/03/14 06:05:24;;;;;;;6.83;4.33;;;5.40;99.90;;;;;;5039365;28;20203;-67
2021/03/14 06:07:50;;;;;;;12.53;5.00;;;5.40;99.90;;;;;;5042235;28;20567;-67
2021/03/14 06:10:17;;;;;;;11.23;4.43;;;5.40;99.90;;;;;;5044627;28;20239;-67
2021/03/14 06:12:45;;;;;;;10.70;4.57;;;5.40;99.90;;;;;;5042578;28;20211;-67
2021/03/14 06:15:12;;;;;;;12.87;4.67;;;5.40;99.90;;;;;;5043439;28;20301;-66
2021/03/14 06:17:39;;;;;;;11.90;5.23;;;5.50;99.90;;;;;;5041814;28;20231;-68
2021/03/14 06:20:07;;;;;;;12.57;5.90;;;5.50;99.90;;;;;;5046689;28;20207;-67
2021/03/14 06:22:33;;;;;;;12.57;5.77;;;5.50;99.90;;;;;;5048994;28;20223;-68
2021/03/14 06:25:00;;;;;;;10.37;5.93;;;5.50;99.90;;;;;;5048107;28;21017;-67
2021/03/14 06:27:31;;;;;;;13.53;5.93;;;5.50;99.90;;;;;;5042224;28;20195;-68
2021/03/14 06:29:59;;;;;;;16.37;6.63;;;5.50;99.90;;;;;;5041047;28;20249;-68
2021/03/14 06:32:26;;;;;;;9.97;5.90;;;5.60;99.90;;;;;;5046571;28;20203;-68
2021/03/14 06:35:08;;;;;;;8.67;6.00;;;5.60;99.90;;;;;;5044752;28;20196;-68
2021/03/14 06:37:35;;;;;;;13.40;5.90;;;5.60;99.90;;;;;;5044695;28;20194;-68
2021/03/14 06:40:12;;;;;;;12.43;6.20;;;5.60;99.90;;;;;;5045311;28;20211;-68
2021/03/14 06:42:39;;;;;;;17.60;5.80;;;5.70;99.90;;;;;;5041675;28;20246;-67
2021/03/14 06:45:09;;;;;;;12.90;5.63;;;5.70;99.90;;;;;;5043678;28;20200;-69
2021/03/14 06:47:44;;;;;;;15.13;5.77;;;5.70;99.90;;;;;;5043048;28;20195;-68
2021/03/14 06:50:17;;;;;;;14.20;5.40;;;5.80;99.90;;;;;;5044806;28;20503;-68
2021/03/14 06:53:06;;;;;;;12.10;5.37;;;5.80;99.90;;;;;;5043678;28;20223;-68
2021/03/14 06:55:32;;;;;;;10.80;5.10;;;5.90;99.90;;;;;;5044052;28;20243;-68
2021/03/14 06:58:22;;;;;;;10.13;4.40;;;5.90;99.90;;;;;;5043925;28;20203;-67
2021/03/14 07:01:10;;;;;;;10.33;4.33;;;5.90;99.90;;;;;;5042845;28;20196;-67
2021/03/14 07:03:38;;;;;;;7.43;3.93;;;5.90;99.90;;;;;;5040347;28;20187;-68
2021/03/14 07:06:19;;;;;;;7.13;3.50;;;6.00;99.90;;;;;;5045298;28;20660;-67
2021/03/14 07:08:48;;;;;;;7.50;2.90;;;5.90;99.90;;;;;;5041882;28;20238;-68
2021/03/14 07:11:33;;;;;;;6.93;3.17;;;6.00;99.90;;;;;;5041940;28;20289;-68
2021/03/14 07:14:00;;;;;;;8.83;3.10;;;6.00;99.90;;;;;;5043269;28;20238;-68
2021/03/14 07:16:44;;;;;;;5.40;2.87;;;6.10;99.90;;;;;;5044382;28;20239;-68
2021/03/14 07:19:15;;;;;;;5.10;3.37;;;6.10;99.90;;;;;;5044149;28;20196;-68
2021/03/14 07:21:41;;;;;;;9.67;3.50;;;6.20;99.90;;;;;;5043163;28;20270;-68
2021/03/14 07:24:12;;;;;;;11.60;3.27;;;6.20;99.90;;;;;;5046114;28;20205;-68
2021/03/14 07:26:43;;;;;;;10.03;3.87;;;6.30;99.90;;;;;;5045666;28;20252;-67
2021/03/14 07:29:09;;;;;;;8.00;4.03;;;6.30;99.90;;;;;;5043353;28;20194;-67
2021/03/14 07:31:36;;;;;;;9.27;3.73;;;6.20;99.90;;;;;;5039084;28;20211;-68
2021/03/14 07:34:05;;;;;;;12.13;4.20;;;6.20;99.90;;;;;;5044039;28;20278;-68
2021/03/14 07:36:32;;;;;;;8.83;4.63;;;6.30;99.90;;;;;;5041906;28;20208;-67
2021/03/14 07:39:00;;;;;;;11.33;4.07;;;6.30;99.90;;;;;;5042451;28;20199;-67
2021/03/14 07:41:27;;;;;;;8.37;3.23;;;6.40;99.90;;;;;;5040810;28;20222;-68
2021/03/14 07:43:54;;;;;;;7.47;3.33;;;6.40;99.90;;;;;;5041569;28;20222;-67
2021/03/14 07:46:24;;;;;;;8.00;3.80;;;6.50;99.90;;;;;;5044767;28;20203;-67
2021/03/14 07:48:52;;;;;;;8.00;3.40;;;6.50;99.90;;;;;;5044072;28;21850;-67
2021/03/14 07:51:22;;;;;;;8.07;3.97;;;6.60;99.90;;;;;;5043738;28;20204;-67
2021/03/14 07:53:49;;;;;;;6.70;3.50;;;6.60;99.90;;;;;;5040471;28;20200;-68
2021/03/14 07:56:16;;;;;;;7.97;3.53;;;6.60;99.90;;;;;;5041220;28;20199;-68
2021/03/14 07:58:43;;;;;;;9.27;3.30;;;6.70;99.90;;;;;;5042201;28;20197;-68
2021/03/14 08:01:22;;;;;;;5.93;3.30;;;6.70;99.90;;;;;;5043696;28;20208;-67
2021/03/14 08:03:49;;;;;;;7.03;3.37;;;6.70;99.90;;;;;;5043820;28;20226;-67
2021/03/14 08:06:15;;;;;;;9.13;2.60;;;6.80;99.90;;;;;;5042829;28;20196;-67
2021/03/14 08:08:47;;;;;;;8.77;2.87;;;6.80;99.90;;;;;;5042534;28;20676;-67
2021/03/14 08:11:24;;;;;;;6.73;2.97;;;6.80;99.90;;;;;;5041958;28;20254;-68
2021/03/14 08:13:51;;;;;;;7.37;2.60;;;6.90;99.90;;;;;;5040910;28;20929;-67
2021/03/14 08:16:17;;;;;;;4.07;2.50;;;7.10;99.90;;;;;;5042693;28;20200;-67
2021/03/14 08:18:46;;;;;;;9.53;2.60;;;7.10;99.90;;;;;;5038942;28;20204;-67
2021/03/14 08:21:39;;;;;;;9.27;3.23;;;7.10;99.90;;;;;;5043702;28;20258;-68
2021/03/14 08:24:06;;;;;;;7.73;2.87;;;7.30;99.90;;;;;;5042902;28;20253;-67
2021/03/14 08:26:35;;;;;;;5.50;2.33;;;7.30;99.90;;;;;;5042833;28;20204;-66
2021/03/14 08:29:03;;;;;;;5.23;2.13;;;7.50;99.90;;;;;;5044752;28;20207;-69
2021/03/14 08:31:40;;;;;;;5.10;2.30;;;7.70;99.90;;;;;;5041761;28;20215;-67
2021/03/14 08:34:08;;;;;;;10.77;2.40;;;7.90;99.90;;;;;;5042501;28;20199;-67
2021/03/14 08:36:36;;;;;;;6.73;2.30;;;8.00;99.90;;;;;;5040227;28;20208;-69
2021/03/14 08:39:04;;;;;;;7.43;2.60;;;8.00;99.90;;;;;;5045409;28;20246;-68
2021/03/14 08:41:39;;;;;;;7.93;2.60;;;8.20;99.90;;;;;;5044401;28;20273;-68
2021/03/14 08:44:12;;;;;;;9.20;3.57;;;8.60;99.90;;;;;;5041598;28;20209;-68
2021/03/14 08:47:10;;;;;;;6.83;2.20;;;9.10;99.90;;;;;;5041252;28;20664;-68
2021/03/14 08:49:41;;;;;;;5.63;2.50;;;9.50;99.90;;;;;;5043717;28;20203;-68
2021/03/14 08:52:10;;;;;;;7.60;2.10;;;9.60;99.90;;;;;;5042417;28;20575;-68
2021/03/14 08:54:39;;;;;;;8.73;2.70;;;9.60;99.90;;;;;;5041143;28;20204;-69
2021/03/14 08:57:09;;;;;;;4.73;2.20;;;9.70;99.90;;;;;;5041226;28;20203;-69
2021/03/14 08:59:44;;;;;;;4.60;2.27;;;9.80;99.90;;;;;;5040754;28;20204;-68
2021/03/14 09:02:12;;;;;;;6.40;2.20;;;10.00;99.90;;;;;;5040273;28;20207;-69
2021/03/14 09:04:39;;;;;;;6.57;2.27;;;9.70;99.90;;;;;;5043306;28;20668;-69
2021/03/14 09:07:07;;;;;;;10.50;2.30;;;9.70;99.90;;;;;;5045431;28;20200;-68
2021/03/14 09:09:34;;;;;;;7.10;2.43;;;9.40;99.90;;;;;;5052128;28;20231;-68
2021/03/14 09:12:08;;;;;;;6.63;2.17;;;9.40;99.90;;;;;;5050392;28;20207;-67
2021/03/14 09:14:37;;;;;;;7.47;2.37;;;9.40;99.90;;;;;;5052241;28;20191;-68
2021/03/14 09:17:10;;;;;;;4.87;2.37;;;9.20;99.90;;;;;;5049335;28;20211;-68
2021/03/14 09:19:39;;;;;;;6.27;2.40;;;9.00;99.90;;;;;;5052648;28;20679;-68
2021/03/14 09:22:08;;;;;;;5.47;2.10;;;9.00;99.90;;;;;;5051288;28;20231;-68
2021/03/14 09:24:41;;;;;;;6.50;2.43;;;9.10;99.90;;;;;;5048966;28;20207;-68
2021/03/14 09:27:15;;;;;;;9.33;2.30;;;9.10;99.90;;;;;;5051287;28;20245;-68
2021/03/14 09:29:53;;;;;;;7.33;2.60;;;9.30;99.90;;;;;;5048057;28;20192;-69
2021/03/14 09:32:34;;;;;;;4.17;2.10;;;9.60;99.90;;;;;;5050723;28;20599;-68
2021/03/14 09:35:12;;;;;;;6.57;2.53;;;9.90;99.90;;;;;;5052021;28;20188;-69
2021/03/14 09:37:39;;;;;;;10.23;2.23;;;9.90;99.90;;;;;;5046020;28;20199;-69
2021/03/14 09:40:16;;;;;;;5.00;2.20;;;9.90;99.90;;;;;;5052232;28;20200;-68
2021/03/14 09:42:45;;;;;;;4.60;2.27;;;9.90;99.90;;;;;;5055206;28;20234;-69
2021/03/14 09:45:13;;;;;;;6.17;2.17;;;10.00;99.90;;;;;;5058138;28;20652;-69
2021/03/14 09:47:59;;;;;;;6.70;2.40;;;10.00;99.90;;;;;;5055770;28;20245;-68
2021/03/14 09:50:26;;;;;;;8.17;2.57;;;10.10;99.90;;;;;;5048461;28;20229;-66
2021/03/14 09:52:53;;;;;;;5.00;2.47;;;10.10;99.90;;;;;;5042466;28;20613;-65
2021/03/14 09:55:24;;;;;;;6.23;2.30;;;10.50;99.90;;;;;;5047611;28;20199;-70
2021/03/14 09:57:51;;;;;;;6.33;2.70;;;10.60;99.90;;;;;;5043221;28;20210;-68
2021/03/14 10:00:23;;;;;;;5.07;2.23;;;10.40;99.90;;;;;;5041601;28;20227;-68
2021/03/14 10:02:50;;;;;;;7.83;2.47;;;10.10;99.90;;;;;;5046148;28;20222;-65
2021/03/14 10:05:18;;;;;;;6.97;2.40;;;9.80;99.90;;;;;;5041410;28;20200;-66
2021/03/14 10:07:49;;;;;;;8.00;2.57;;;9.60;99.90;;;;;;5048809;28;20545;-67
2021/03/14 10:10:15;;;;;;;7.50;2.83;;;9.40;99.90;;;;;;5050183;28;20226;-68
2021/03/14 10:12:42;;;;;;;9.13;2.73;;;9.40;99.90;;;;;;5045737;28;20261;-66
2021/03/14 10:15:14;;;;;;;7.20;2.10;;;9.70;99.90;;;;;;5051488;28;20695;-67
2021/03/14 10:17:41;;;;;;;7.40;2.67;;;9.80;99.90;;;;;;5053284;28;20268;-66
2021/03/14 10:20:11;;;;;;;5.53;2.87;;;10.00;99.90;;;;;;5056547;28;20210;-66
2021/03/14 10:22:37;;;;;;;4.90;2.53;;;10.10;99.90;;;;;;5058060;28;20691;-66
2021/03/14 10:25:05;;;;;;;7.57;2.80;;;10.10;99.90;;;;;;5052585;28;20261;-67
2021/03/14 10:27:32;;;;;;;7.57;2.47;;;10.60;99.90;;;;;;5053605;28;20203;-67
2021/03/14 10:30:00;;;;;;;8.80;2.37;;;10.70;99.90;;;;;;5051551;28;20219;-66
2021/03/14 10:32:31;;;;;;;6.83;2.83;;;10.40;99.90;;;;;;5060399;28;20203;-69
2021/03/14 10:35:01;;;;;;;8.20;2.80;;;10.20;99.90;;;;;;5053575;28;20579;-68
2021/03/14 10:37:30;;;;;;;6.97;2.33;;;10.40;99.90;;;;;;5053860;28;20208;-67
2021/03/14 10:39:58;;;;;;;8.93;2.40;;;10.60;99.90;;;;;;5054683;28;20270;-67
2021/03/14 10:42:33;;;;;;;4.87;2.20;;;10.80;99.90;;;;;;5051455;28;20235;-68
2021/03/14 10:45:05;;;;;;;9.50;2.83;;;10.70;99.90;;;;;;5049538;28;20563;-68
2021/03/14 10:47:32;;;;;;;6.20;1.90;;;10.50;99.90;;;;;;5057622;28;20200;-68
2021/03/14 10:50:15;;;;;;;5.80;2.00;;;10.40;99.90;;;;;;5052428;28;20207;-66
2021/03/14 10:52:41;;;;;;;7.93;2.73;;;10.30;99.90;;;;;;5044434;28;20203;-67
2021/03/14 10:55:24;;;;;;;6.47;2.37;;;10.50;99.90;;;;;;5047029;28;20254;-67
2021/03/14 10:58:03;;;;;;;5.93;2.13;;;10.30;99.90;;;;;;5049617;28;20200;-67
2021/03/14 11:00:29;;;;;;;6.43;2.27;;;10.20;99.90;;;;;;5041783;28;20199;-66
2021/03/14 11:02:59;;;;;;;12.50;2.10;;;10.10;99.90;;;;;;5041478;28;20236;-67
2021/03/14 11:05:26;;;;;;;4.97;2.30;;;10.20;99.90;;;;;;5041717;28;20230;-67
2021/03/14 11:08:00;;;;;;;8.33;2.63;;;10.50;99.90;;;;;;5041414;28;21306;-67
2021/03/14 11:10:27;;;;;;;5.97;2.73;;;10.50;99.90;;;;;;5038506;28;20246;-68
2021/03/14 11:12:54;;;;;;;9.37;2.77;;;10.60;99.90;;;;;;5034521;28;20204;-66
2021/03/14 11:15:23;;;;;;;9.13;2.70;;;10.50;99.90;;;;;;5046404;28;20203;-67
2021/03/14 11:17:50;;;;;;;6.37;2.53;;;10.60;99.90;;;;;;5043389;28;20204;-67
2021/03/14 11:20:19;;;;;;;6.27;2.40;;;10.60;99.90;;;;;;5055131;28;20199;-67
2021/03/14 11:22:48;;;;;;;6.50;2.60;;;10.70;99.90;;;;;;5037337;28;20279;-67
2021/03/14 11:25:14;;;;;;;6.77;2.63;;;10.80;99.90;;;;;;5039454;28;20211;-68
2021/03/14 11:27:41;;;;;;;6.23;2.77;;;10.80;99.90;;;;;;5033875;28;20200;-67
2021/03/14 11:30:09;;;;;;;6.03;2.40;;;10.50;99.90;;;;;;5036472;28;20253;-67
2021/03/14 11:32:36;;;;;;;10.57;3.27;;;10.70;99.90;;;;;;5036939;28;20200;-67
2021/03/14 11:35:03;;;;;;;6.27;2.53;;;10.80;99.90;;;;;;5037544;28;20196;-67
2021/03/14 11:37:31;;;;;;;9.57;2.63;;;10.40;99.90;;;;;;5033910;28;20649;-67
2021/03/14 11:39:57;;;;;;;7.73;2.50;;;10.30;99.90;;;;;;5036671;28;20218;-67
2021/03/14 11:42:24;;;;;;;3.60;1.93;;;10.40;99.90;;;;;;5038598;28;20215;-67
2021/03/14 11:44:50;;;;;;;8.87;2.60;;;10.40;99.90;;;;;;5037857;28;20616;-68
2021/03/14 11:47:17;;;;;;;9.90;2.80;;;10.40;99.90;;;;;;5033641;28;20211;-68
2021/03/14 11:49:43;;;;;;;7.13;2.40;;;10.60;99.90;;;;;;5034754;28;20317;-62
2021/03/14 11:52:10;;;;;;;4.10;2.17;;;10.70;99.90;;;;;;5036248;28;20203;-64
2021/03/14 11:54:37;;;;;;;6.23;2.20;;;10.60;99.90;;;;;;5034643;28;20199;-69
2021/03/14 11:57:04;;;;;;;6.63;2.40;;;10.40;99.90;;;;;;5032991;28;20200;-66
2021/03/14 11:59:31;;;;;;;7.13;2.60;;;10.50;99.90;;;;;;5036662;28;20261;-67
2021/03/14 12:01:57;;;;;;;4.70;2.20;;;10.40;99.90;;;;;;5036394;28;20236;-67
2021/03/14 12:04:23;;;;;;;10.17;2.50;;;10.50;99.90;;;;;;5034687;28;20657;-68
2021/03/14 12:06:50;;;;;;;8.33;2.60;;;10.80;99.90;;;;;;5035324;28;20208;-69
2021/03/14 12:09:16;;;;;;;4.67;1.70;;;10.80;99.90;;;;;;5033094;28;20241;-66
2021/03/14 12:11:44;;;;;;;4.80;1.93;;;10.50;99.90;;;;;;5035062;28;20219;-66
2021/03/14 12:14:11;;;;;;;8.03;2.40;;;10.20;99.90;;;;;;5033396;28;20215;-67
2021/03/14 12:16:37;;;;;;;5.60;1.90;;;9.90;99.90;;;;;;5034278;28;21044;-68
2021/03/14 12:19:04;;;;;;;4.90;1.83;;;10.00;99.90;;;;;;5043958;28;20196;-68
2021/03/14 12:21:30;;;;;;;5.30;1.70;;;10.20;99.90;;;;;;5035379;28;20200;-66
2021/03/14 12:23:57;;;;;;;6.13;2.20;;;10.60;99.90;;;;;;5034336;28;20191;-65
2021/03/14 12:26:23;;;;;;;8.10;2.57;;;11.00;99.90;;;;;;5036843;28;20199;-68
2021/03/14 12:28:51;;;;;;;5.07;2.00;;;10.90;99.90;;;;;;5035324;28;20219;-65
2021/03/14 12:31:17;;;;;;;6.33;1.87;;;10.90;99.90;;;;;;5035873;28;20204;-65
2021/03/14 12:33:44;;;;;;;5.87;2.00;;;10.90;99.90;;;;;;5034466;28;20195;-65
2021/03/14 12:36:12;;;;;;;5.30;1.87;;;10.90;99.90;;;;;;5036151;28;20778;-65
2021/03/14 12:38:39;;;;;;;5.30;2.80;;;10.90;99.90;;;;;;5032566;28;20203;-68
2021/03/14 12:41:05;;;;;;;7.00;2.17;;;10.80;99.90;;;;;;5037534;28;20281;-67
2021/03/14 12:43:32;;;;;;;3.23;1.87;;;11.00;99.90;;;;;;5031081;28;21455;-68
2021/03/14 12:46:00;;;;;;;9.03;2.00;;;11.40;99.90;;;;;;5038017;28;20281;-66
2021/03/14 12:48:26;;;;;;;4.47;1.93;;;11.50;99.90;;;;;;5036342;28;22081;-66
2021/03/14 12:50:53;;;;;;;5.60;2.00;;;11.90;99.90;;;;;;5035504;28;20258;-68
2021/03/14 12:53:19;;;;;;;5.97;2.07;;;12.10;99.90;;;;;;5036375;28;20203;-68
2021/03/14 12:55:46;;;;;;;5.00;1.90;;;12.20;99.90;;;;;;5034328;28;20739;-67
2021/03/14 12:58:13;;;;;;;3.67;1.83;;;12.70;99.90;;;;;;5038232;28;20197;-71
2021/03/14 13:00:40;;;;;;;6.93;1.93;;;12.50;99.90;;;;;;5030309;28;20213;-69